Time;durP1;ratioP1;P1;durP2;ratioP2;P2;SDS_P1;SDS_P2;PMS_P1;PMS_P2;Temp;Humidity;BMP_temperature;BMP_pressure;BME280_temperature;BME280_humidity;BME280_pressure;Samples;Min_cycle;Max_cycle;Signal;HPM_P1;HPM_P2
2022/05/11 00:00:49;;;;;;;4.15;2.60;;;;;;;12.24;57.51;95135.50;4995648;28;20030;-71
2022/05/11 00:03:14;;;;;;;3.40;2.45;;;;;;;12.21;57.40;95127.97;5044008;28;20796;-71
2022/05/11 00:05:40;;;;;;;3.35;2.40;;;;;;;12.21;57.27;95127.97;5009116;28;20036;-71
2022/05/11 00:08:06;;;;;;;4.43;2.42;;;;;;;12.22;56.95;95130.41;5032203;28;20427;-71
2022/05/11 00:10:31;;;;;;;3.80;2.47;;;;;;;12.12;57.07;95121.75;5007474;28;20060;-71
2022/05/11 00:12:57;;;;;;;3.25;2.30;;;;;;;12.01;57.05;95114.84;5010728;28;20388;-71
2022/05/11 00:28:00;;;;;;;4.88;2.60;;;;;;;12.28;56.26;95119.47;5147294;27;20381;-73
2022/05/11 00:30:29;;;;;;;4.15;2.55;;;;;;;12.14;56.40;95126.81;5130628;27;20056;-73
2022/05/11 00:32:56;;;;;;;2.88;2.20;;;;;;;11.97;56.69;95128.22;5125967;27;20030;-74
2022/05/11 00:35:22;;;;;;;2.60;2.40;;;;;;;11.91;56.63;95129.56;5125642;28;20110;-74
2022/05/11 00:37:47;;;;;;;4.38;2.78;;;;;;;11.82;56.84;95132.91;5124253;28;20385;-74
2022/05/11 00:40:13;;;;;;;3.20;2.78;;;;;;;11.75;57.09;95126.53;5106054;28;20031;-74
2022/05/11 00:42:38;;;;;;;3.58;2.30;;;;;;;11.74;57.26;95123.13;5089044;28;20498;-74
2022/05/11 00:45:04;;;;;;;4.75;2.10;;;;;;;11.68;57.35;95115.00;5123359;27;20432;-73
2022/05/11 00:47:44;;;;;;;3.50;2.42;;;;;;;11.58;57.27;95107.94;5123356;28;20692;-74
2022/05/11 00:50:21;;;;;;;2.40;2.20;;;;;;;11.57;57.18;95105.47;5106580;28;20031;-74
2022/05/11 00:52:55;;;;;;;4.38;2.20;;;;;;;11.61;56.78;95110.28;5122770;28;20020;-74
2022/05/11 00:55:26;;;;;;;3.63;2.08;;;;;;;11.61;56.60;95112.88;5116502;28;20481;-74
2022/05/11 00:58:02;;;;;;;;;;;;;;;11.61;56.57;95114.66;5110859;28;20027;-74
2022/05/11 01:00:28;;;;;;;3.47;2.22;;;;;;;11.50;56.75;95115.53;5126816;28;19919;-74
2022/05/11 01:02:56;;;;;;;2.70;2.10;;;;;;;11.50;56.95;95112.94;5092676;28;20075;-74
2022/05/11 01:05:22;;;;;;;4.13;2.38;;;;;;;11.43;57.48;95122.22;5106360;28;20095;-74
2022/05/11 01:07:48;;;;;;;3.17;2.20;;;;;;;11.36;58.29;95126.25;5107810;28;20157;-74
2022/05/11 01:10:14;;;;;;;3.35;2.40;;;;;;;11.46;57.83;95131.53;5114199;27;20031;-74
2022/05/11 01:12:42;;;;;;;2.92;2.60;;;;;;;11.47;57.96;95120.19;5102230;28;20020;-74
2022/05/11 01:15:11;;;;;;;4.15;2.75;;;;;;;11.44;58.83;95129.06;5128287;27;20511;-72
2022/05/11 01:17:37;;;;;;;2.75;2.50;;;;;;;11.31;59.04;95124.03;5118478;27;20083;-72
2022/05/11 01:20:05;;;;;;;4.05;2.53;;;;;;;11.27;59.41;95134.78;5130254;27;20415;-72
2022/05/11 01:23:17;;;;;;;4.00;2.60;;;;;;;11.32;60.00;95136.06;5118029;28;20530;-72
2022/05/11 01:25:43;;;;;;;2.50;2.30;;;;;;;11.23;60.10;95128.19;5127252;28;20079;-72
2022/05/11 01:28:11;;;;;;;5.40;2.55;;;;;;;11.11;60.64;95130.00;5117892;28;20409;-72
2022/05/11 01:30:40;;;;;;;3.60;2.67;;;;;;;11.10;60.79;95123.97;5147026;27;20114;-72
2022/05/11 01:33:05;;;;;;;3.30;2.30;;;;;;;10.94;60.70;95115.75;5149297;27;20477;-72
2022/05/11 01:36:09;;;;;;;5.53;2.80;;;;;;;10.89;59.78;95113.53;5116157;27;20032;-72
2022/05/11 01:38:43;;;;;;;2.55;2.30;;;;;;;10.81;59.46;95109.84;5110381;27;20047;-72
2022/05/11 01:41:09;;;;;;;3.53;2.58;;;;;;;10.69;59.20;95102.06;5133499;27;20064;-72
2022/05/11 01:43:37;;;;;;;2.83;2.30;;;;;;;10.78;58.99;95116.16;5126709;27;20103;-72
2022/05/11 01:46:03;;;;;;;3.28;2.35;;;;;;;10.74;59.15;95105.16;5092119;28;20070;-72
2022/05/11 01:48:28;;;;;;;5.03;2.70;;;;;;;10.78;59.20;95113.56;5109384;28;20035;-73
2022/05/11 01:50:54;;;;;;;3.63;2.28;;;;;;;10.77;59.34;95118.84;5098683;28;20179;-72
2022/05/11 01:53:19;;;;;;;4.05;2.30;;;;;;;10.78;59.22;95116.16;5095113;28;20076;-72
2022/05/11 01:55:45;;;;;;;4.65;2.30;;;;;;;10.83;59.42;95116.59;5095408;28;20078;-72
2022/05/11 01:58:11;;;;;;;3.30;2.53;;;;;;;10.72;59.61;95114.81;5112101;28;20040;-73
2022/05/11 02:00:37;;;;;;;3.50;2.60;;;;;;;10.68;60.09;95123.81;5112617;27;20042;-72
2022/05/11 02:03:03;;;;;;;3.30;2.65;;;;;;;10.68;60.40;95130.78;5112385;28;20118;-72
2022/05/11 02:08:12;;;;;;;4.15;2.70;;;;;;;10.58;60.53;95120.28;5112236;28;20577;-72
2022/05/11 02:10:38;;;;;;;3.05;2.70;;;;;;;10.49;60.84;95115.81;5111701;28;20040;-72
2022/05/11 02:13:03;;;;;;;4.55;3.10;;;;;;;10.51;60.68;95112.16;5113140;28;20024;-72
2022/05/11 02:15:29;;;;;;;3.50;2.45;;;;;;;10.55;60.57;95112.72;5113280;28;20426;-72
2022/05/11 02:17:54;;;;;;;3.67;2.80;;;;;;;10.47;60.50;95108.16;5113419;28;20024;-72
2022/05/11 02:20:20;;;;;;;3.08;2.60;;;;;;;10.62;60.10;95108.72;5111472;28;20127;-72
2022/05/11 02:22:46;;;;;;;5.85;2.75;;;;;;;10.58;60.37;95112.47;5095074;28;20080;-72
2022/05/11 02:25:12;;;;;;;3.40;2.60;;;;;;;10.54;60.94;95118.06;5111544;28;20031;-72
2022/05/11 02:27:38;;;;;;;4.57;2.85;;;;;;;10.52;60.75;95120.75;5095029;28;20127;-72
2022/05/11 02:30:04;;;;;;;2.95;2.53;;;;;;;10.38;61.27;95110.63;5111241;28;20110;-72
2022/05/11 02:32:29;;;;;;;4.55;2.88;;;;;;;10.40;61.18;95111.34;5094932;28;20039;-72
2022/05/11 02:35:13;;;;;;;3.25;2.40;;;;;;;10.41;60.70;95103.41;5110946;28;20043;-72
2022/05/11 02:37:43;;;;;;;3.13;2.38;;;;;;;10.36;60.79;95109.91;5097391;28;20088;-72
2022/05/11 02:40:10;;;;;;;3.42;2.42;;;;;;;10.39;60.33;95105.31;5111855;28;20031;-72
2022/05/11 02:42:35;;;;;;;4.63;2.70;;;;;;;10.47;60.18;95107.31;5090932;28;20528;-72
2022/05/11 02:45:01;;;;;;;3.17;2.50;;;;;;;10.52;60.22;95121.59;5108222;28;20019;-72
2022/05/11 02:47:27;;;;;;;3.42;2.42;;;;;;;10.58;60.39;95129.84;5094529;28;20440;-72
2022/05/11 02:49:52;;;;;;;3.55;2.70;;;;;;;10.64;60.34;95124.16;5112739;28;20066;-72
2022/05/11 02:52:18;;;;;;;4.30;3.03;;;;;;;10.82;60.62;95129.72;5110736;28;20027;-72
2022/05/11 02:54:46;;;;;;;3.67;2.83;;;;;;;10.70;61.03;95128.91;5112662;28;20493;-72
2022/05/11 02:57:16;;;;;;;4.45;3.20;;;;;;;10.67;61.41;95127.38;5094728;28;20051;-72
2022/05/11 02:59:42;;;;;;;5.53;3.53;;;;;;;10.53;61.80;95130.22;5090644;28;20024;-72
2022/05/11 03:02:08;;;;;;;8.88;8.07;;;;;;;10.51;61.99;95137.31;5090995;28;20039;-72
2022/05/11 03:04:33;;;;;;;7.10;6.35;;;;;;;10.56;62.21;95130.00;5092027;28;20032;-72
2022/05/11 03:06:58;;;;;;;3.83;3.42;;;;;;;10.71;62.46;95130.56;5107877;28;20039;-72
2022/05/11 03:09:24;;;;;;;4.90;3.60;;;;;;;10.67;62.31;95124.78;5107889;28;20025;-72
2022/05/11 03:11:49;;;;;;;5.47;3.22;;;;;;;10.62;62.53;95129.50;5092257;28;20036;-72
2022/05/11 03:14:15;;;;;;;4.80;3.10;;;;;;;10.70;62.44;95129.72;5097247;28;20031;-72
2022/05/11 03:16:40;;;;;;;3.67;2.80;;;;;;;10.70;60.95;95145.31;5077025;28;20078;-72
2022/05/11 03:19:06;;;;;;;3.95;2.42;;;;;;;10.68;60.24;95144.59;5090307;28;20351;-72
2022/05/11 03:21:32;;;;;;;2.97;2.65;;;;;;;10.72;59.75;95148.59;5092595;28;20247;-72
2022/05/11 03:23:57;;;;;;;3.30;2.60;;;;;;;10.68;59.85;95149.81;5091990;28;20031;-72
2022/05/11 03:26:23;;;;;;;3.47;2.50;;;;;;;10.67;59.59;95144.72;5092097;28;20124;-72
2022/05/11 03:28:48;;;;;;;3.25;2.35;;;;;;;10.72;59.07;95135.63;5092058;28;20023;-72
2022/05/11 03:31:14;;;;;;;3.67;2.40;;;;;;;10.73;58.68;95141.66;5110142;28;20439;-72
2022/05/11 03:36:23;;;;;;;3.10;2.50;;;;;;;10.79;58.68;95142.94;5110283;28;20119;-72
2022/05/11 03:38:49;;;;;;;3.53;2.50;;;;;;;10.82;58.42;95143.53;5111798;28;20016;-72
2022/05/11 03:41:15;;;;;;;4.40;2.80;;;;;;;10.73;58.58;95139.88;5111923;28;20031;-72
2022/05/11 03:43:40;;;;;;;4.22;2.47;;;;;;;10.82;58.15;95145.31;5110515;28;20023;-72
2022/05/11 03:46:05;;;;;;;3.63;2.50;;;;;;;10.79;58.16;95137.75;5109703;28;20507;-72
2022/05/11 03:48:31;;;;;;;3.47;2.70;;;;;;;10.89;58.31;95146.47;5110428;28;20028;-72
2022/05/11 03:50:56;;;;;;;4.85;2.30;;;;;;;10.85;58.63;95142.47;5110042;28;20034;-72
2022/05/11 03:53:22;;;;;;;2.80;2.35;;;;;;;10.85;58.48;95137.28;5110043;28;20031;-72
2022/05/11 03:55:47;;;;;;;2.95;2.45;;;;;;;10.84;58.42;95140.81;5110209;28;20031;-72
2022/05/11 03:58:14;;;;;;;3.90;2.60;;;;;;;10.85;58.29;95143.28;5093269;28;20027;-72
2022/05/11 04:00:40;;;;;;;3.67;2.33;;;;;;;10.77;58.53;95142.25;5092809;28;20507;-72
2022/05/11 04:03:05;;;;;;;3.25;2.20;;;;;;;10.74;58.73;95151.09;5110279;28;20099;-72
2022/05/11 04:05:32;;;;;;;3.67;2.50;;;;;;;10.69;58.36;95146.25;5110019;28;20032;-72
2022/05/11 04:07:57;;;;;;;3.53;2.33;;;;;;;10.85;58.23;95148.47;5110007;28;20080;-72
2022/05/11 04:10:23;;;;;;;6.68;2.20;;;;;;;10.94;57.98;95159.94;5109738;28;20020;-72
2022/05/11 04:12:48;;;;;;;3.97;2.22;;;;;;;10.99;57.70;95155.19;5110098;28;20036;-72
2022/05/11 04:15:14;;;;;;;2.80;2.22;;;;;;;11.09;57.87;95155.31;5110855;28;20057;-72
2022/05/11 04:17:40;;;;;;;6.63;3.28;;;;;;;11.23;60.25;95159.38;5109716;28;20624;-72
2022/05/11 04:20:06;;;;;;;5.13;3.65;;;;;;;11.33;60.28;95173.31;5110085;28;20420;-72
2022/05/11 04:22:31;;;;;;;8.95;4.80;;;;;;;11.33;60.32;95168.94;5092685;28;20035;-72
2022/05/11 04:24:57;;;;;;;5.75;4.10;;;;;;;11.31;60.33;95170.00;5110823;28;20028;-72
2022/05/11 04:27:23;;;;;;;5.25;3.78;;;;;;;11.29;60.65;95174.53;5109924;28;20155;-72
2022/05/11 04:29:48;;;;;;;5.43;3.67;;;;;;;11.18;61.52;95177.97;5109699;28;20447;-72
2022/05/11 04:32:14;;;;;;;4.50;3.45;;;;;;;11.23;61.52;95190.59;5109594;28;20031;-72
2022/05/11 04:34:40;;;;;;;4.85;3.63;;;;;;;11.30;62.15;95199.56;5109611;28;20028;-72
2022/05/11 04:37:06;;;;;;;9.85;3.60;;;;;;;11.67;60.93;95197.44;5107357;28;20031;-72
2022/05/11 04:39:32;;;;;;;5.82;3.30;;;;;;;12.29;59.62;95201.91;5092965;28;20221;-72
2022/05/11 04:41:57;;;;;;;6.93;3.53;;;;;;;13.04;57.39;95199.06;5111477;28;20040;-73
2022/05/11 04:44:22;;;;;;;5.45;3.45;;;;;;;13.75;54.66;95193.72;5111059;28;20553;-73
2022/05/11 04:46:49;;;;;;;5.10;3.50;;;;;;;14.27;53.19;95200.28;5109302;28;20481;-73
2022/05/11 05:02:23;;;;;;;9.13;3.75;;;;;;;15.97;47.94;95195.66;5148690;27;20832;-73
2022/05/11 05:04:49;;;;;;;4.07;2.95;;;;;;;16.15;47.94;95196.44;5145540;27;20047;-73
2022/05/11 05:07:15;;;;;;;5.25;3.10;;;;;;;16.12;46.58;95209.03;5137057;27;20042;-73
2022/05/11 05:09:43;;;;;;;5.53;3.38;;;;;;;16.01;47.30;95199.63;5149806;27;20472;-73
2022/05/11 05:12:10;;;;;;;4.65;2.92;;;;;;;16.02;47.20;95199.47;5135927;27;20212;-73
2022/05/11 05:14:36;;;;;;;3.60;2.80;;;;;;;16.12;47.13;95198.56;5090120;28;20034;-73
2022/05/11 05:17:04;;;;;;;3.78;2.58;;;;;;;16.45;47.38;95202.25;5107003;28;20406;-73
2022/05/11 05:19:30;;;;;;;3.33;2.30;;;;;;;16.49;47.16;95200.94;5107031;28;20047;-73
2022/05/11 05:21:55;;;;;;;2.90;2.17;;;;;;;16.70;45.72;95204.03;5109748;28;20537;-73
2022/05/11 05:24:21;;;;;;;3.85;2.35;;;;;;;16.81;45.99;95207.44;5105257;28;20036;-73
2022/05/11 05:26:46;;;;;;;3.50;2.10;;;;;;;16.99;45.44;95208.16;5108488;28;20474;-73
2022/05/11 05:31:55;;;;;;;4.07;2.60;;;;;;;17.03;45.38;95203.44;5109868;27;20511;-73
2022/05/11 05:34:21;;;;;;;3.00;2.50;;;;;;;17.17;44.18;95208.91;5103712;28;20031;-73
2022/05/11 05:36:46;;;;;;;5.57;2.72;;;;;;;17.19;44.20;95211.38;5111620;27;20027;-73
2022/05/11 05:39:12;;;;;;;4.28;3.00;;;;;;;17.19;44.78;95206.94;5126986;27;20030;-73
2022/05/11 05:41:37;;;;;;;7.85;3.10;;;;;;;17.30;45.83;95216.34;5117424;27;20034;-73
2022/05/11 05:44:06;;;;;;;5.47;3.20;;;;;;;17.41;45.18;95221.31;5125823;27;20023;-73
2022/05/11 05:46:32;;;;;;;5.32;2.95;;;;;;;17.56;44.57;95215.44;5128085;27;20031;-73
2022/05/11 05:48:58;;;;;;;3.50;3.00;;;;;;;17.45;45.25;95218.38;5126521;28;20027;-72
2022/05/11 05:51:25;;;;;;;3.55;2.83;;;;;;;17.49;44.17;95214.41;5131452;27;20035;-73
2022/05/11 05:53:51;;;;;;;5.75;2.92;;;;;;;17.36;44.16;95220.97;5125841;27;20173;-74
2022/05/11 05:56:16;;;;;;;5.50;3.08;;;;;;;17.24;45.11;95221.41;5092198;28;20096;-73
2022/05/11 05:58:42;;;;;;;7.10;3.13;;;;;;;17.29;44.98;95227.00;5127485;27;20019;-79
2022/05/11 06:01:08;;;;;;;8.00;3.50;;;;;;;17.26;45.77;95237.81;5090061;28;20063;-73
2022/05/11 06:03:34;;;;;;;5.00;3.70;;;;;;;17.25;45.82;95237.00;5115848;27;20038;-73
2022/05/11 06:06:00;;;;;;;6.15;4.07;;;;;;;17.35;46.00;95240.31;5092058;28;20039;-74
2022/05/11 06:08:26;;;;;;;7.22;4.10;;;;;;;17.30;45.85;95237.34;5099374;28;20541;-73
2022/05/11 06:10:54;;;;;;;22.02;4.28;;;;;;;17.47;45.73;95245.25;5102460;28;20509;-75
2022/05/11 06:13:22;;;;;;;5.25;3.40;;;;;;;17.55;45.54;95243.50;5109196;28;20066;-75
2022/05/11 06:15:48;;;;;;;4.85;3.70;;;;;;;17.54;45.47;95246.28;5104554;28;20035;-75
2022/05/11 06:18:14;;;;;;;4.30;3.50;;;;;;;17.36;45.59;95241.16;5091608;28;20532;-73
2022/05/11 06:20:39;;;;;;;4.35;3.50;;;;;;;17.36;46.35;95241.16;5097015;28;20036;-74
2022/05/11 06:23:05;;;;;;;6.97;3.78;;;;;;;17.38;45.79;95228.66;5104522;28;20020;-73
2022/05/11 06:25:31;;;;;;;7.95;3.80;;;;;;;17.49;45.58;95246.75;5094497;28;20070;-73
2022/05/11 06:27:58;;;;;;;5.60;3.60;;;;;;;17.57;46.03;95249.41;5109572;28;20101;-73
2022/05/11 06:30:28;;;;;;;6.80;3.70;;;;;;;17.73;45.73;95256.53;5092055;28;20110;-73
2022/05/11 06:32:54;;;;;;;5.13;3.85;;;;;;;17.84;44.74;95244.94;5102795;28;20119;-73
2022/05/11 06:35:19;;;;;;;4.20;3.80;;;;;;;17.84;45.02;95235.22;5110094;28;20472;-72
2022/05/11 06:37:45;;;;;;;6.82;4.20;;;;;;;17.80;45.34;95238.34;5113229;28;20035;-72
2022/05/11 06:40:11;;;;;;;5.53;4.00;;;;;;;17.90;45.39;95246.91;5091766;28;20032;-72
2022/05/11 06:42:37;;;;;;;4.72;3.75;;;;;;;17.79;46.23;95226.19;5083404;28;20031;-74
2022/05/11 06:45:05;;;;;;;4.78;4.13;;;;;;;18.13;45.67;95247.09;5110847;28;20035;-79
2022/05/11 06:47:30;;;;;;;7.70;4.43;;;;;;;18.34;44.51;95235.28;5083733;28;20035;-75
2022/05/11 06:49:56;;;;;;;8.32;4.30;;;;;;;18.55;43.96;95248.75;5111394;28;20484;-75
2022/05/11 06:52:22;;;;;;;6.82;4.70;;;;;;;18.49;44.91;95238.88;5108428;28;20058;-77
2022/05/11 07:00:32;;;;;;;5.88;5.18;;;;;;;18.76;44.01;95240.38;5065665;28;20387;-76
2022/05/11 07:02:58;;;;;;;8.68;4.80;;;;;;;18.87;44.27;95241.84;5086679;28;20544;-76
2022/05/11 07:05:23;;;;;;;8.10;5.32;;;;;;;19.01;44.11;95243.78;5127916;27;20031;-73
2022/05/11 07:07:50;;;;;;;7.25;5.10;;;;;;;19.06;43.73;95246.75;5110242;28;20024;-74
2022/05/11 07:10:16;;;;;;;6.90;5.18;;;;;;;19.03;44.57;95239.19;5094496;28;20057;-74
2022/05/11 07:12:46;;;;;;;9.57;4.93;;;;;;;19.19;44.46;95240.91;5105887;28;20597;-74
2022/05/11 07:15:12;;;;;;;10.23;5.53;;;;;;;19.25;43.58;95234.16;5098532;28;20053;-74
2022/05/11 07:17:42;;;;;;;8.48;5.40;;;;;;;19.33;43.72;95234.94;5089398;28;20064;-73
2022/05/11 07:20:21;;;;;;;8.23;5.53;;;;;;;19.55;43.06;95241.28;5106964;28;20496;-72
2022/05/11 07:22:46;;;;;;;6.93;5.20;;;;;;;19.67;42.10;95233.00;5109426;28;20477;-72
2022/05/11 07:25:14;;;;;;;6.32;4.07;;;;;;;19.66;41.45;95226.94;5109492;28;20120;-72
2022/05/11 07:27:42;;;;;;;5.97;4.15;;;;;;;19.88;41.83;95230.59;5093436;28;20038;-73
2022/05/11 07:30:09;;;;;;;7.53;3.97;;;;;;;20.03;41.78;95228.00;5088479;28;20028;-73
2022/05/11 07:32:34;;;;;;;6.45;4.20;;;;;;;20.07;40.69;95221.41;5106768;27;20578;-74
2022/05/11 07:35:00;;;;;;;6.43;4.50;;;;;;;20.17;40.91;95213.25;5105937;27;20036;-74
2022/05/11 07:37:25;;;;;;;11.43;4.65;;;;;;;20.25;41.42;95221.09;5091793;28;20061;-73
2022/05/11 07:39:51;;;;;;;6.75;4.60;;;;;;;20.38;39.93;95217.88;5110859;28;20066;-73
2022/05/11 07:42:17;;;;;;;8.13;4.70;;;;;;;20.45;39.27;95222.28;5107930;28;20028;-73
2022/05/11 07:44:43;;;;;;;6.28;3.30;;;;;;;20.41;37.90;95225.44;5110134;28;20047;-73
2022/05/11 07:47:10;;;;;;;10.10;3.50;;;;;;;20.42;39.16;95211.22;5110445;28;20027;-73
2022/05/11 07:49:36;;;;;;;11.57;4.90;;;;;;;20.61;39.01;95209.94;5110007;28;20077;-72
2022/05/11 07:52:02;;;;;;;6.10;4.40;;;;;;;20.68;39.37;95205.59;5108777;28;20039;-73
2022/05/11 07:54:29;;;;;;;7.57;4.60;;;;;;;20.68;39.03;95206.41;5108835;28;20062;-73
2022/05/11 07:59:57;;;;;;;5.65;4.35;;;;;;;20.66;38.61;95204.97;5101809;28;20039;-73
2022/05/11 08:02:26;;;;;;;5.35;4.10;;;;;;;20.63;38.20;95205.31;5102907;28;20039;-73
2022/05/11 08:04:57;;;;;;;4.97;3.50;;;;;;;20.69;37.96;95204.59;5108692;28;20032;-75
2022/05/11 08:07:25;;;;;;;7.85;4.35;;;;;;;20.72;39.75;95206.88;5094025;28;20118;-78
2022/05/11 08:09:51;;;;;;;8.00;4.72;;;;;;;20.87;38.74;95205.09;5091822;28;20528;-77
2022/05/11 08:12:16;;;;;;;6.70;5.05;;;;;;;20.77;39.89;95207.16;5091629;28;20035;-75
2022/05/11 08:14:41;;;;;;;9.18;4.45;;;;;;;20.97;39.07;95202.16;5120303;27;20504;-75
2022/05/11 08:17:07;;;;;;;8.23;4.38;;;;;;;21.06;38.69;95193.16;5110264;28;20121;-76
2022/05/11 08:19:33;;;;;;;7.20;3.20;;;;;;;21.14;36.04;95179.84;5092372;28;20020;-76
2022/05/11 08:21:58;;;;;;;4.32;3.00;;;;;;;21.25;35.65;95197.06;5090410;28;20042;-76
2022/05/11 08:24:24;;;;;;;8.05;3.28;;;;;;;21.21;35.29;95190.50;5107816;27;20026;-76
2022/05/11 08:26:52;;;;;;;4.28;3.10;;;;;;;21.22;36.71;95183.41;5101901;28;20027;-77
2022/05/11 08:34:47;;;;;;;3.47;2.60;;;;;;;21.55;35.77;95181.19;5086649;28;20604;-76
2022/05/11 08:37:13;;;;;;;4.97;2.80;;;;;;;21.53;35.43;95184.00;5109860;28;20032;-75
2022/05/11 08:39:39;;;;;;;4.95;3.13;;;;;;;21.69;36.28;95182.16;5094811;28;20412;-76
2022/05/11 08:42:05;;;;;;;4.30;3.17;;;;;;;21.80;35.90;95177.19;5107855;28;20031;-76
2022/05/11 08:44:34;;;;;;;7.07;3.05;;;;;;;21.89;34.72;95182.38;5112017;28;20526;-77
2022/05/11 08:47:16;;;;;;;4.88;3.20;;;;;;;21.87;35.31;95193.16;5110088;28;20031;-77
2022/05/11 08:50:06;;;;;;;3.40;2.67;;;;;;;21.60;34.72;95184.09;5118800;28;20032;-77
2022/05/11 08:52:47;;;;;;;5.53;2.63;;;;;;;21.68;34.65;95181.34;5091259;28;20024;-77
2022/05/11 08:55:25;;;;;;;4.40;2.60;;;;;;;21.75;34.82;95192.78;5109791;28;20505;-77
2022/05/11 08:57:50;;;;;;;6.30;3.00;;;;;;;21.78;33.62;95179.19;5109657;28;20070;-76
2022/05/11 09:00:17;;;;;;;4.03;2.63;;;;;;;21.67;34.33;95181.53;5088592;28;20044;-76
2022/05/11 09:02:48;;;;;;;3.03;2.28;;;;;;;21.64;33.98;95174.78;5106086;28;20072;-77
2022/05/11 09:05:16;;;;;;;7.20;2.70;;;;;;;21.70;34.40;95171.38;5109617;28;20062;-77
2022/05/11 09:07:42;;;;;;;4.93;2.30;;;;;;;21.75;34.06;95168.19;5094374;28;20023;-75
2022/05/11 09:10:08;;;;;;;5.28;2.50;;;;;;;21.75;34.20;95163.72;5130133;28;20033;-74
2022/05/11 09:12:34;;;;;;;3.63;2.28;;;;;;;21.67;33.88;95163.00;5074953;28;20032;-76
2022/05/11 09:15:00;;;;;;;3.97;2.30;;;;;;;21.64;34.91;95169.50;5114333;28;20126;-76
2022/05/11 09:17:36;;;;;;;3.45;2.80;;;;;;;21.78;34.64;95171.28;5104877;28;20024;-76
2022/05/11 09:20:20;;;;;;;7.07;2.80;;;;;;;21.77;33.28;95174.94;5110321;28;20039;-76
2022/05/11 09:22:52;;;;;;;4.53;2.42;;;;;;;21.89;34.77;95175.25;5091576;28;20080;-76
2022/05/11 09:25:20;;;;;;;3.55;2.60;;;;;;;22.01;34.23;95157.88;5103496;28;20039;-77
2022/05/11 09:27:46;;;;;;;3.45;2.60;;;;;;;22.18;32.63;95171.69;5091789;28;20530;-76
2022/05/11 09:30:25;;;;;;;4.95;2.60;;;;;;;22.16;32.89;95168.38;5087902;28;20127;-75
2022/05/11 09:32:53;;;;;;;4.10;2.22;;;;;;;22.24;32.80;95170.13;5074456;28;20110;-75
2022/05/11 09:35:32;;;;;;;3.80;2.10;;;;;;;22.39;31.97;95167.38;5103015;28;20024;-75
2022/05/11 09:38:17;;;;;;;5.65;2.20;;;;;;;22.46;32.64;95171.72;5094999;28;20024;-75
2022/05/11 09:41:05;;;;;;;6.05;2.30;;;;;;;22.61;32.13;95171.63;5110866;28;20497;-75
2022/05/11 09:43:35;;;;;;;4.60;2.17;;;;;;;22.71;31.94;95169.47;5109507;28;20023;-76
2022/05/11 09:46:15;;;;;;;2.55;2.08;;;;;;;22.85;31.86;95172.22;5094684;28;20130;-75
2022/05/11 09:48:42;;;;;;;4.40;2.30;;;;;;;23.03;30.82;95172.53;5114136;28;20032;-75
2022/05/11 09:51:21;;;;;;;2.50;1.88;;;;;;;22.90;30.14;95161.81;5075428;28;20063;-75
2022/05/11 09:53:51;;;;;;;3.90;2.10;;;;;;;22.85;29.87;95145.72;5109774;28;20027;-75
2022/05/11 09:56:31;;;;;;;2.65;1.88;;;;;;;22.99;29.95;95157.25;5095737;28;20063;-76
2022/05/11 09:59:01;;;;;;;6.45;2.63;;;;;;;23.01;29.63;95156.00;5092922;27;20071;-75
2022/05/11 10:01:28;;;;;;;2.80;2.20;;;;;;;23.07;28.66;95147.31;5133210;27;20523;-75
2022/05/11 10:04:03;;;;;;;5.15;2.10;;;;;;;22.94;29.21;95152.50;5110111;27;20085;-75
2022/05/11 10:06:31;;;;;;;2.45;1.77;;;;;;;23.06;29.66;95152.78;5091948;28;20043;-77
2022/05/11 10:08:57;;;;;;;3.85;2.03;;;;;;;23.06;29.91;95148.28;5105086;28;20031;-73
2022/05/11 10:11:25;;;;;;;3.20;1.90;;;;;;;23.14;27.70;95144.66;5091792;28;20047;-74
2022/05/11 10:14:01;;;;;;;2.92;1.92;;;;;;;23.22;28.60;95149.00;5109116;28;20386;-76
2022/05/11 10:22:12;;;;;;;3.15;2.00;;;;;;;23.17;28.62;95138.97;5097091;28;20038;-75
2022/05/11 10:25:09;;;;;;;4.70;1.95;;;;;;;23.22;29.23;95127.78;5100781;28;20032;-74
2022/05/11 10:27:51;;;;;;;4.22;1.80;;;;;;;23.41;29.56;95113.81;5100783;28;20031;-73
2022/05/11 10:30:23;;;;;;;4.50;1.90;;;;;;;23.62;29.24;95120.78;5086977;28;20080;-75
2022/05/11 10:33:00;;;;;;;3.10;1.77;;;;;;;23.76;27.68;95126.97;5103758;28;20035;-75
2022/05/11 10:36:05;;;;;;;3.65;1.80;;;;;;;23.76;29.18;95119.81;5104706;28;20040;-75
2022/05/11 10:38:51;;;;;;;3.17;1.92;;;;;;;23.93;28.60;95117.63;5112039;28;20031;-75
2022/05/11 10:41:36;;;;;;;3.47;1.73;;;;;;;23.97;26.36;95126.78;5112338;28;20035;-75
2022/05/11 10:44:02;;;;;;;3.40;1.70;;;;;;;23.88;26.45;95124.56;5109557;28;20020;-75
2022/05/11 10:46:41;;;;;;;3.92;1.50;;;;;;;23.90;27.32;95120.66;5111546;28;20048;-74
2022/05/11 10:49:22;;;;;;;4.65;1.60;;;;;;;24.04;28.35;95124.13;5110322;28;20639;-75
2022/05/11 10:52:26;;;;;;;2.65;1.50;;;;;;;24.02;26.41;95119.06;5111632;28;20130;-75
2022/05/11 10:55:35;;;;;;;3.85;1.40;;;;;;;24.04;26.33;95113.53;5098847;28;20043;-74
2022/05/11 10:58:21;;;;;;;2.95;1.80;;;;;;;24.25;27.88;95120.47;5100443;27;20495;-75
2022/05/11 11:00:51;;;;;;;3.00;1.60;;;;;;;24.32;27.73;95115.97;5110289;27;20146;-75
2022/05/11 11:03:22;;;;;;;2.90;1.60;;;;;;;24.41;27.55;95121.91;5101256;27;20412;-75
2022/05/11 11:09:09;;;;;;;3.70;1.80;;;;;;;24.70;27.60;95115.38;5103688;28;20139;-74
2022/05/11 11:11:46;;;;;;;3.17;1.75;;;;;;;24.82;26.29;95120.84;5090217;28;20519;-75
2022/05/11 11:14:12;;;;;;;3.65;1.70;;;;;;;24.83;26.98;95112.69;5077946;28;20024;-75
2022/05/11 11:16:38;;;;;;;3.35;1.70;;;;;;;24.65;26.04;95109.84;5093057;28;20069;-74
2022/05/11 11:19:05;;;;;;;19.45;17.65;;;;;;;24.60;25.98;95114.97;5108353;27;20054;-78
2022/05/11 11:21:30;;;;;;;4.78;2.05;;;;;;;24.51;26.61;95123.13;5110095;28;20500;-74
2022/05/11 11:24:17;;;;;;;3.40;2.20;;;;;;;24.38;27.32;95104.56;5087932;27;20088;-76
2022/05/11 11:26:53;;;;;;;3.67;2.10;;;;;;;24.48;27.01;95126.22;5091051;28;20111;-75
2022/05/11 11:29:27;;;;;;;6.75;2.10;;;;;;;24.28;29.79;95131.50;5106727;27;20030;-75
2022/05/11 11:32:02;;;;;;;3.13;2.08;;;;;;;24.08;31.41;95146.59;5110670;28;20095;-74
2022/05/11 11:35:06;;;;;;;7.55;2.30;;;;;;;23.83;32.01;95143.72;5110500;27;20023;-74
2022/05/11 11:37:32;;;;;;;11.27;2.40;;;;;;;23.66;32.00;95137.94;5105006;27;20047;-75
2022/05/11 11:39:58;;;;;;;3.78;1.83;;;;;;;23.57;33.06;95133.84;5114206;27;20089;-75
2022/05/11 11:42:37;;;;;;;7.35;2.20;;;;;;;23.42;32.11;95133.97;5109460;28;20032;-75
2022/05/11 11:45:05;;;;;;;5.05;2.05;;;;;;;23.20;32.29;95097.00;5084357;28;20122;-79
2022/05/11 11:47:58;;;;;;;4.53;1.90;;;;;;;23.40;32.42;95150.09;5112265;27;20059;-77
2022/05/11 11:50:50;;;;;;;4.90;1.70;;;;;;;23.35;32.33;95141.09;5106512;28;20508;-78
2022/05/11 11:53:32;;;;;;;4.35;1.90;;;;;;;23.20;31.75;95147.34;5083923;27;20119;-81
2022/05/11 11:56:22;;;;;;;3.88;1.45;;;;;;;23.06;29.95;95145.66;5098634;28;20481;-81
2022/05/11 11:59:12;;;;;;;2.90;1.50;;;;;;;23.01;31.18;95140.09;5123096;27;20536;-81
2022/05/11 12:01:39;;;;;;;3.58;1.30;;;;;;;22.92;30.10;95147.38;5105325;28;20051;-80
2022/05/11 12:04:14;;;;;;;2.88;1.40;;;;;;;22.70;30.60;95141.34;5106840;27;20035;-78
2022/05/11 12:15:03;;;;;;;2.30;1.20;;;;;;;22.29;30.68;95136.78;5130695;27;20042;-76
2022/05/11 12:17:34;;;;;;;3.35;1.50;;;;;;;22.27;30.33;95143.28;5126293;27;20119;-74
2022/05/11 12:20:06;;;;;;;2.13;1.25;;;;;;;22.26;31.04;95139.81;5108511;28;20032;-74
2022/05/11 12:22:32;;;;;;;4.28;1.60;;;;;;;22.15;31.94;95128.88;5091768;28;20101;-74
2022/05/11 12:24:59;;;;;;;2.42;1.58;;;;;;;22.21;31.64;95133.47;5104749;28;20040;-74
2022/05/11 12:27:27;;;;;;;2.63;1.30;;;;;;;22.23;32.97;95132.28;5107942;28;20027;-74
2022/05/11 12:29:55;;;;;;;1.70;1.20;;;;;;;22.25;31.54;95117.00;5108758;28;20027;-74
2022/05/11 12:32:22;;;;;;;2.30;1.30;;;;;;;22.25;30.84;95118.84;5110321;28;20055;-74
2022/05/11 12:34:48;;;;;;;1.90;1.30;;;;;;;22.28;31.83;95121.09;5110196;28;20035;-74
2022/05/11 12:37:23;;;;;;;2.55;1.40;;;;;;;22.30;31.24;95117.25;5111482;28;20386;-74
2022/05/11 12:40:02;;;;;;;3.80;1.40;;;;;;;22.42;31.70;95120.19;5109991;28;20115;-74
2022/05/11 12:42:29;;;;;;;4.25;1.63;;;;;;;22.44;30.82;95126.09;5110639;28;20031;-74
2022/05/11 12:44:55;;;;;;;3.22;1.50;;;;;;;22.42;30.34;95114.06;5093217;28;20453;-74
2022/05/11 12:47:20;;;;;;;2.33;1.30;;;;;;;22.42;30.61;95109.59;5110181;28;20031;-74
2022/05/11 12:49:47;;;;;;;2.38;1.40;;;;;;;22.46;31.29;95120.63;5092958;28;20032;-74